Terminal Aerodrome Forecast
Issued by NWS Charleston, WV

Current Version | Previous Version | Text Only | Print | Product List | Glossary Off
Versions: 1 2 3 4 5 6 7 8 9 10 11 12 13 14 15 16 17 18 19 20 21 22 23 24 25 26 27 28 29 30 31 32 33

000
FTUS41 KRLX 200500 RRA
TAFCRW
TAF
KCRW 200542Z 2006/2106 00000KT P6SM SKC
     FM201000 00000KT 4SM BR SCT025
     FM201300 00000KT 6SM BR FEW025 SCT200
     FM201400 00000KT P6SM SCT030 SCT200
     FM201600 33004KT P6SM BKN200=

USA.gov is the U.S. government's official web portal to all federal, state and local government web resources and services.